Garyville, LA (70051)

12:16 AM CDT on September 05, 2015 (GMT -0500)
Gramercy, LA | | Change Station
CLOSE
Current Station
Personal Weather Station
Location: Gramercy, LA
Elevation: 16 ft
Nearby Weather Stations

Elev 16 ft 30.06 °N, 90.70 °W | Updated 12 minutes ago

Partly Cloudy
Partly Cloudy
77.9 °F
Feels Like 80 °F
N
0.0
Wind Variable Wind from East
Gusts 2.0 mph

Today
High -- | Low -- °F
--% Chance of Precip.
Yesterday
High -- | Low -- °F
Precip. -- in
6:41 AM 7:20 PM
Waning Gibbous, 52% visible
Pressure 29.97 in
Visibility 10.0 miles
Clouds Clear
Heat Index 80 °F
Dew Point 76 °F
Humidity 93%
Rainfall 0.00 in
Snow Depth Not available.
UV 0 out of 12
Pollen 7.50 out of 12
Air Quality Not available.
Flu Activity Not available.
METAR KL38 050455Z AUTO 00000KT 10SM CLR 25/25 A2997 RMK AO2 T02510251
Pressure 29.97 in
Visibility 10.0 miles
Clouds Clear
Heat Index 80 °F
Dew Point 76 °F
Humidity 93%
Rainfall 0.00 in
Snow Depth Not available.
UV 0 out of 12
Pollen 7.50 out of 12
Air Quality Not available.
Flu Activity Not available.
METAR KL38 050455Z AUTO 00000KT 10SM CLR 25/25 A2997 RMK AO2 T02510251

10-Day Weather Forecast

×

Almanac

Astronomy

Sep. 05, 2015 Rise Set
Actual Time
Civil Twilight
Nautical Twilight
Astronomical Twilight
Moon
Length of Visible Light
Length of Day
Tomorrow will be .
, % of the Moon is Illuminated

Today's Extremes

State Highs State Lows

Community

WunderPhotos

Upload Photos

1,852,426 photos uploaded!

WunderBlogs® & News

Nearby

Air Quality

  Air Quality AQ Index Pollutant
Not available.

Snow Depth

Station Depth Elevation

Earthquake Activity

City Distance Mag. Time & Date
Minimum magnitude displayed is 2.5.

Coastal Water Temperatures

Place Temperature

Stations

Nearby Weather Stations

Station Location Temp. Windchill Dew Point Humidity Wind Precip. Elev Updated Type